sensor_id;sensor_type;location;lat;lon;timestamp;temperature;humidity
1359;DHT22;673;48.098;14.422;2023-07-22T00:02:20;16.90;99.90
1359;DHT22;673;48.098;14.422;2023-07-22T00:04:48;17.00;99.90
1359;DHT22;673;48.098;14.422;2023-07-22T00:07:15;17.00;99.90
1359;DHT22;673;48.098;14.422;2023-07-22T00:09:42;17.10;99.90
1359;DHT22;673;48.098;14.422;2023-07-22T00:12:10;17.10;99.90
1359;DHT22;673;48.098;14.422;2023-07-22T00:14:40;17.10;99.90
1359;DHT22;673;48.098;14.422;2023-07-22T00:17:08;17.10;99.90
1359;DHT22;673;48.098;14.422;2023-07-22T00:19:34;17.10;99.90
1359;DHT22;673;48.098;14.422;2023-07-22T00:22:02;17.10;99.90
1359;DHT22;673;48.098;14.422;2023-07-22T00:24:29;17.10;99.90
1359;DHT22;673;48.098;14.422;2023-07-22T00:26:57;17.10;99.90
1359;DHT22;673;48.098;14.422;2023-07-22T00:29:24;17.10;99.90
1359;DHT22;673;48.098;14.422;2023-07-22T00:31:52;17.10;99.90
1359;DHT22;673;48.098;14.422;2023-07-22T00:34:19;17.20;99.90
1359;DHT22;673;48.098;14.422;2023-07-22T00:36:46;17.20;99.90
1359;DHT22;673;48.098;14.422;2023-07-22T00:39:13;17.20;99.90
1359;DHT22;673;48.098;14.422;2023-07-22T00:41:40;17.20;99.90
1359;DHT22;673;48.098;14.422;2023-07-22T00:44:09;17.30;99.90
1359;DHT22;673;48.098;14.422;2023-07-22T00:46:37;17.30;99.90
1359;DHT22;673;48.098;14.422;2023-07-22T00:49:07;17.20;99.90
1359;DHT22;673;48.098;14.422;2023-07-22T00:51:34;17.30;99.90
1359;DHT22;673;48.098;14.422;2023-07-22T00:54:01;17.30;99.90
1359;DHT22;673;48.098;14.422;2023-07-22T00:56:30;17.30;99.90
1359;DHT22;673;48.098;14.422;2023-07-22T00:58:59;17.30;99.90
1359;DHT22;673;48.098;14.422;2023-07-22T01:01:26;17.30;99.90
1359;DHT22;673;48.098;14.422;2023-07-22T01:03:53;17.30;99.90
1359;DHT22;673;48.098;14.422;2023-07-22T01:06:22;17.30;99.90
1359;DHT22;673;48.098;14.422;2023-07-22T01:08:50;17.30;99.90
1359;DHT22;673;48.098;14.422;2023-07-22T01:11:17;17.30;99.90
1359;DHT22;673;48.098;14.422;2023-07-22T01:13:44;17.30;99.90
1359;DHT22;673;48.098;14.422;2023-07-22T01:16:11;17.30;99.90
1359;DHT22;673;48.098;14.422;2023-07-22T01:18:39;17.30;99.90
1359;DHT22;673;48.098;14.422;2023-07-22T01:21:06;17.20;99.90
1359;DHT22;673;48.098;14.422;2023-07-22T01:23:35;17.30;99.90
1359;DHT22;673;48.098;14.422;2023-07-22T01:26:03;17.30;99.90
1359;DHT22;673;48.098;14.422;2023-07-22T01:28:30;17.30;99.90
1359;DHT22;673;48.098;14.422;2023-07-22T01:30:57;17.20;99.90
1359;DHT22;673;48.098;14.422;2023-07-22T01:33:23;17.20;99.90
1359;DHT22;673;48.098;14.422;2023-07-22T01:35:52;17.20;99.90
1359;DHT22;673;48.098;14.422;2023-07-22T01:38:19;17.20;99.90
1359;DHT22;673;48.098;14.422;2023-07-22T01:40:47;17.20;99.90
1359;DHT22;673;48.098;14.422;2023-07-22T01:43:14;17.10;99.90
1359;DHT22;673;48.098;14.422;2023-07-22T01:45:41;17.20;99.90
1359;DHT22;673;48.098;14.422;2023-07-22T01:48:08;17.20;99.90
1359;DHT22;673;48.098;14.422;2023-07-22T01:50:35;17.20;99.90
1359;DHT22;673;48.098;14.422;2023-07-22T01:53:02;17.10;99.90
1359;DHT22;673;48.098;14.422;2023-07-22T01:55:31;17.10;99.90
1359;DHT22;673;48.098;14.422;2023-07-22T01:58:00;17.10;99.90
1359;DHT22;673;48.098;14.422;2023-07-22T02:00:27;17.10;99.90
1359;DHT22;673;48.098;14.422;2023-07-22T02:02:54;17.10;99.90
1359;DHT22;673;48.098;14.422;2023-07-22T02:05:21;17.10;99.90
1359;DHT22;673;48.098;14.422;2023-07-22T02:07:48;17.00;99.90
1359;DHT22;673;48.098;14.422;2023-07-22T02:10:15;17.00;99.90
1359;DHT22;673;48.098;14.422;2023-07-22T02:12:42;17.00;99.90
1359;DHT22;673;48.098;14.422;2023-07-22T02:15:10;16.90;99.90
1359;DHT22;673;48.098;14.422;2023-07-22T02:17:37;16.80;99.90
1359;DHT22;673;48.098;14.422;2023-07-22T02:20:05;16.80;99.90
1359;DHT22;673;48.098;14.422;2023-07-22T02:22:34;16.70;99.90
1359;DHT22;673;48.098;14.422;2023-07-22T02:25:01;16.60;99.90
1359;DHT22;673;48.098;14.422;2023-07-22T02:27:28;16.60;99.90
1359;DHT22;673;48.098;14.422;2023-07-22T02:29:55;16.60;99.90
1359;DHT22;673;48.098;14.422;2023-07-22T02:32:24;16.60;99.90
1359;DHT22;673;48.098;14.422;2023-07-22T02:34:51;16.60;99.90
1359;DHT22;673;48.098;14.422;2023-07-22T02:37:17;16.60;99.90
1359;DHT22;673;48.098;14.422;2023-07-22T02:39:44;16.60;99.90
1359;DHT22;673;48.098;14.422;2023-07-22T02:42:11;16.60;99.90
1359;DHT22;673;48.098;14.422;2023-07-22T02:44:38;16.60;99.90
1359;DHT22;673;48.098;14.422;2023-07-22T02:47:05;16.60;99.90
1359;DHT22;673;48.098;14.422;2023-07-22T02:49:33;16.60;99.90
1359;DHT22;673;48.098;14.422;2023-07-22T02:52:01;16.60;99.90
1359;DHT22;673;48.098;14.422;2023-07-22T02:54:28;16.60;99.90
1359;DHT22;673;48.098;14.422;2023-07-22T02:56:55;16.60;99.90
1359;DHT22;673;48.098;14.422;2023-07-22T02:59:21;16.60;99.90
1359;DHT22;673;48.098;14.422;2023-07-22T03:01:50;16.60;99.90
1359;DHT22;673;48.098;14.422;2023-07-22T03:04:16;16.60;99.90
1359;DHT22;673;48.098;14.422;2023-07-22T03:06:46;16.60;99.90
1359;DHT22;673;48.098;14.422;2023-07-22T03:09:13;16.60;99.90
1359;DHT22;673;48.098;14.422;2023-07-22T03:11:40;16.60;99.90
1359;DHT22;673;48.098;14.422;2023-07-22T03:14:07;16.60;99.90
1359;DHT22;673;48.098;14.422;2023-07-22T03:16:34;16.60;99.90
1359;DHT22;673;48.098;14.422;2023-07-22T03:19:01;16.60;99.90
1359;DHT22;673;48.098;14.422;2023-07-22T03:21:28;16.60;99.90
1359;DHT22;673;48.098;14.422;2023-07-22T03:23:56;16.50;99.90
1359;DHT22;673;48.098;14.422;2023-07-22T03:26:23;16.50;99.90
1359;DHT22;673;48.098;14.422;2023-07-22T03:28:50;16.50;99.90
1359;DHT22;673;48.098;14.422;2023-07-22T03:31:17;16.50;99.90
1359;DHT22;673;48.098;14.422;2023-07-22T03:33:44;16.40;99.90
1359;DHT22;673;48.098;14.422;2023-07-22T03:36:11;16.40;99.90
1359;DHT22;673;48.098;14.422;2023-07-22T03:38:39;16.40;99.90
1359;DHT22;673;48.098;14.422;2023-07-22T03:41:07;16.30;99.90
1359;DHT22;673;48.098;14.422;2023-07-22T03:43:34;16.30;99.90
1359;DHT22;673;48.098;14.422;2023-07-22T03:46:01;16.30;99.90
1359;DHT22;673;48.098;14.422;2023-07-22T03:48:28;16.30;99.90
1359;DHT22;673;48.098;14.422;2023-07-22T03:50:55;16.20;99.90
1359;DHT22;673;48.098;14.422;2023-07-22T03:53:22;16.20;99.90
1359;DHT22;673;48.098;14.422;2023-07-22T03:55:49;16.20;99.90
1359;DHT22;673;48.098;14.422;2023-07-22T03:58:17;16.20;99.90
1359;DHT22;673;48.098;14.422;2023-07-22T04:00:48;16.20;99.90
1359;DHT22;673;48.098;14.422;2023-07-22T04:03:15;16.10;99.90
1359;DHT22;673;48.098;14.422;2023-07-22T04:05:42;16.10;99.90
1359;DHT22;673;48.098;14.422;2023-07-22T04:08:09;16.10;99.90
1359;DHT22;673;48.098;14.422;2023-07-22T04:10:36;16.10;99.90
1359;DHT22;673;48.098;14.422;2023-07-22T04:13:03;16.10;99.90
1359;DHT22;673;48.098;14.422;2023-07-22T04:15:31;16.10;99.90
1359;DHT22;673;48.098;14.422;2023-07-22T04:17:58;16.20;99.90
1359;DHT22;673;48.098;14.422;2023-07-22T04:20:25;16.20;99.90
1359;DHT22;673;48.098;14.422;2023-07-22T04:22:52;16.20;99.90
1359;DHT22;673;48.098;14.422;2023-07-22T04:25:19;16.20;99.90
1359;DHT22;673;48.098;14.422;2023-07-22T04:27:46;16.20;99.90
1359;DHT22;673;48.098;14.422;2023-07-22T04:30:13;16.20;99.90
1359;DHT22;673;48.098;14.422;2023-07-22T04:32:47;16.30;99.90
1359;DHT22;673;48.098;14.422;2023-07-22T04:35:15;16.30;99.90
1359;DHT22;673;48.098;14.422;2023-07-22T04:37:42;16.40;99.90
1359;DHT22;673;48.098;14.422;2023-07-22T04:40:11;16.50;99.90
1359;DHT22;673;48.098;14.422;2023-07-22T04:42:40;16.60;99.90
1359;DHT22;673;48.098;14.422;2023-07-22T04:45:08;16.70;99.90
1359;DHT22;673;48.098;14.422;2023-07-22T04:47:36;16.70;99.90
1359;DHT22;673;48.098;14.422;2023-07-22T04:50:06;16.70;99.90
1359;DHT22;673;48.098;14.422;2023-07-22T04:52:34;16.60;99.90
1359;DHT22;673;48.098;14.422;2023-07-22T04:55:01;16.60;99.90
1359;DHT22;673;48.098;14.422;2023-07-22T04:57:34;16.60;99.90
1359;DHT22;673;48.098;14.422;2023-07-22T05:00:01;16.60;99.90
1359;DHT22;673;48.098;14.422;2023-07-22T05:02:30;16.60;99.90
1359;DHT22;673;48.098;14.422;2023-07-22T05:04:57;16.60;99.90
1359;DHT22;673;48.098;14.422;2023-07-22T05:07:25;16.60;99.90
1359;DHT22;673;48.098;14.422;2023-07-22T05:09:52;16.80;99.90
1359;DHT22;673;48.098;14.422;2023-07-22T05:12:19;16.90;99.90
1359;DHT22;673;48.098;14.422;2023-07-22T05:14:46;17.00;99.90
1359;DHT22;673;48.098;14.422;2023-07-22T05:17:13;17.00;99.90
1359;DHT22;673;48.098;14.422;2023-07-22T05:19:39;16.80;99.90
1359;DHT22;673;48.098;14.422;2023-07-22T05:22:06;16.70;99.90
1359;DHT22;673;48.098;14.422;2023-07-22T05:24:35;16.70;99.90
1359;DHT22;673;48.098;14.422;2023-07-22T05:27:02;16.90;99.90
1359;DHT22;673;48.098;14.422;2023-07-22T05:29:29;17.10;99.90
1359;DHT22;673;48.098;14.422;2023-07-22T05:31:56;17.20;99.90
1359;DHT22;673;48.098;14.422;2023-07-22T05:34:23;17.20;99.90
1359;DHT22;673;48.098;14.422;2023-07-22T05:36:50;17.40;99.90
1359;DHT22;673;48.098;14.422;2023-07-22T05:39:16;17.50;99.90
1359;DHT22;673;48.098;14.422;2023-07-22T05:41:45;17.40;99.90
1359;DHT22;673;48.098;14.422;2023-07-22T05:44:12;17.50;99.90
1359;DHT22;673;48.098;14.422;2023-07-22T05:46:39;17.60;99.90
1359;DHT22;673;48.098;14.422;2023-07-22T05:49:06;17.70;99.90
1359;DHT22;673;48.098;14.422;2023-07-22T05:51:33;17.80;99.90
1359;DHT22;673;48.098;14.422;2023-07-22T05:54:00;17.90;99.90
1359;DHT22;673;48.098;14.422;2023-07-22T05:56:27;17.80;99.90
1359;DHT22;673;48.098;14.422;2023-07-22T05:58:55;17.90;99.90
1359;DHT22;673;48.098;14.422;2023-07-22T06:01:23;18.00;99.90
1359;DHT22;673;48.098;14.422;2023-07-22T06:03:50;18.10;99.90
1359;DHT22;673;48.098;14.422;2023-07-22T06:06:17;18.20;99.90
1359;DHT22;673;48.098;14.422;2023-07-22T06:08:44;18.10;99.90
1359;DHT22;673;48.098;14.422;2023-07-22T06:11:11;17.90;99.90
1359;DHT22;673;48.098;14.422;2023-07-22T06:13:38;18.00;99.90
1359;DHT22;673;48.098;14.422;2023-07-22T06:16:06;18.30;99.90
1359;DHT22;673;48.098;14.422;2023-07-22T06:18:33;18.40;99.90
1359;DHT22;673;48.098;14.422;2023-07-22T06:21:00;18.70;99.90
1359;DHT22;673;48.098;14.422;2023-07-22T06:23:27;18.70;99.90
1359;DHT22;673;48.098;14.422;2023-07-22T06:25:54;18.80;99.90
1359;DHT22;673;48.098;14.422;2023-07-22T06:28:21;18.90;99.90
1359;DHT22;673;48.098;14.422;2023-07-22T06:30:48;19.10;99.90
1359;DHT22;673;48.098;14.422;2023-07-22T06:33:16;19.20;99.90
1359;DHT22;673;48.098;14.422;2023-07-22T06:35:43;19.00;99.90
1359;DHT22;673;48.098;14.422;2023-07-22T06:38:10;19.30;99.90
1359;DHT22;673;48.098;14.422;2023-07-22T06:40:37;19.50;99.90
1359;DHT22;673;48.098;14.422;2023-07-22T06:43:03;19.50;99.90
1359;DHT22;673;48.098;14.422;2023-07-22T06:45:31;19.50;99.90
1359;DHT22;673;48.098;14.422;2023-07-22T06:47:58;19.60;99.90
1359;DHT22;673;48.098;14.422;2023-07-22T06:50:27;19.80;99.90
1359;DHT22;673;48.098;14.422;2023-07-22T06:52:53;20.00;99.90
1359;DHT22;673;48.098;14.422;2023-07-22T06:55:20;20.00;99.90
1359;DHT22;673;48.098;14.422;2023-07-22T06:57:48;20.10;99.90
1359;DHT22;673;48.098;14.422;2023-07-22T07:00:15;20.10;99.90
1359;DHT22;673;48.098;14.422;2023-07-22T07:02:42;20.30;99.90
1359;DHT22;673;48.098;14.422;2023-07-22T07:05:09;20.50;99.90
1359;DHT22;673;48.098;14.422;2023-07-22T07:07:38;20.80;99.90
1359;DHT22;673;48.098;14.422;2023-07-22T07:10:07;20.90;99.90
1359;DHT22;673;48.098;14.422;2023-07-22T07:12:34;21.10;99.90
1359;DHT22;673;48.098;14.422;2023-07-22T07:15:02;21.10;99.90
1359;DHT22;673;48.098;14.422;2023-07-22T07:17:29;21.20;99.90
1359;DHT22;673;48.098;14.422;2023-07-22T07:19:56;21.40;99.80
1359;DHT22;673;48.098;14.422;2023-07-22T07:22:22;21.30;99.20
1359;DHT22;673;48.098;14.422;2023-07-22T07:24:51;21.30;97.90
1359;DHT22;673;48.098;14.422;2023-07-22T07:27:18;21.30;98.90
1359;DHT22;673;48.098;14.422;2023-07-22T07:29:44;21.20;98.50
1359;DHT22;673;48.098;14.422;2023-07-22T07:32:11;21.70;99.30
1359;DHT22;673;48.098;14.422;2023-07-22T07:34:38;21.90;98.70
1359;DHT22;673;48.098;14.422;2023-07-22T07:37:05;21.90;97.40
1359;DHT22;673;48.098;14.422;2023-07-22T07:39:32;21.70;97.50
1359;DHT22;673;48.098;14.422;2023-07-22T07:42:01;21.70;99.30
1359;DHT22;673;48.098;14.422;2023-07-22T07:44:28;21.50;97.00
1359;DHT22;673;48.098;14.422;2023-07-22T07:46:55;21.60;98.40
1359;DHT22;673;48.098;14.422;2023-07-22T07:49:21;21.30;97.90
1359;DHT22;673;48.098;14.422;2023-07-22T07:51:48;21.40;98.10
1359;DHT22;673;48.098;14.422;2023-07-22T07:54:15;21.60;97.20
1359;DHT22;673;48.098;14.422;2023-07-22T07:56:42;21.60;97.10
1359;DHT22;673;48.098;14.422;2023-07-22T07:59:10;22.00;96.00
1359;DHT22;673;48.098;14.422;2023-07-22T08:01:37;21.90;96.60
1359;DHT22;673;48.098;14.422;2023-07-22T08:04:07;21.90;97.50
1359;DHT22;673;48.098;14.422;2023-07-22T08:06:34;22.30;94.40
1359;DHT22;673;48.098;14.422;2023-07-22T08:09:03;22.10;95.90
1359;DHT22;673;48.098;14.422;2023-07-22T08:11:31;22.00;97.10
1359;DHT22;673;48.098;14.422;2023-07-22T08:13:58;22.20;95.50
1359;DHT22;673;48.098;14.422;2023-07-22T08:16:26;22.50;95.60
1359;DHT22;673;48.098;14.422;2023-07-22T08:18:53;22.40;93.40
1359;DHT22;673;48.098;14.422;2023-07-22T08:21:20;22.10;94.30
1359;DHT22;673;48.098;14.422;2023-07-22T08:23:47;22.10;94.70
1359;DHT22;673;48.098;14.422;2023-07-22T08:26:14;22.10;94.10
1359;DHT22;673;48.098;14.422;2023-07-22T08:28:43;22.40;94.20
1359;DHT22;673;48.098;14.422;2023-07-22T08:31:10;22.20;93.90
1359;DHT22;673;48.098;14.422;2023-07-22T08:33:38;22.20;93.60
1359;DHT22;673;48.098;14.422;2023-07-22T08:36:05;22.10;92.70
1359;DHT22;673;48.098;14.422;2023-07-22T08:38:32;22.20;92.30
1359;DHT22;673;48.098;14.422;2023-07-22T08:40:59;22.50;94.00
1359;DHT22;673;48.098;14.422;2023-07-22T08:43:28;22.70;93.20
1359;DHT22;673;48.098;14.422;2023-07-22T08:46:00;22.90;93.70
1359;DHT22;673;48.098;14.422;2023-07-22T08:48:30;22.90;92.50
1359;DHT22;673;48.098;14.422;2023-07-22T08:51:07;23.10;91.50
1359;DHT22;673;48.098;14.422;2023-07-22T08:53:37;23.30;90.70
1359;DHT22;673;48.098;14.422;2023-07-22T08:56:04;23.40;90.50
1359;DHT22;673;48.098;14.422;2023-07-22T08:58:32;23.40;85.80
1359;DHT22;673;48.098;14.422;2023-07-22T09:00:59;23.40;91.30
1359;DHT22;673;48.098;14.422;2023-07-22T09:03:27;23.20;91.10
1359;DHT22;673;48.098;14.422;2023-07-22T09:05:54;23.30;89.30
1359;DHT22;673;48.098;14.422;2023-07-22T09:08:23;23.40;85.00
1359;DHT22;673;48.098;14.422;2023-07-22T09:10:50;23.90;86.30
1359;DHT22;673;48.098;14.422;2023-07-22T09:13:18;23.80;79.60
1359;DHT22;673;48.098;14.422;2023-07-22T09:15:46;23.70;83.00
1359;DHT22;673;48.098;14.422;2023-07-22T09:18:14;23.60;81.90
1359;DHT22;673;48.098;14.422;2023-07-22T09:20:41;23.70;81.90
1359;DHT22;673;48.098;14.422;2023-07-22T09:23:08;23.50;82.70
1359;DHT22;673;48.098;14.422;2023-07-22T09:25:37;23.60;81.90
1359;DHT22;673;48.098;14.422;2023-07-22T09:28:04;23.50;82.10
1359;DHT22;673;48.098;14.422;2023-07-22T09:30:33;23.30;84.80
1359;DHT22;673;48.098;14.422;2023-07-22T09:33:02;23.40;89.60
1359;DHT22;673;48.098;14.422;2023-07-22T09:35:30;23.10;83.30
1359;DHT22;673;48.098;14.422;2023-07-22T09:37:58;22.70;84.10
1359;DHT22;673;48.098;14.422;2023-07-22T09:40:27;22.90;87.30
1359;DHT22;673;48.098;14.422;2023-07-22T09:42:57;22.90;87.60
1359;DHT22;673;48.098;14.422;2023-07-22T09:45:30;22.90;83.40
1359;DHT22;673;48.098;14.422;2023-07-22T09:47:58;22.90;84.70
1359;DHT22;673;48.098;14.422;2023-07-22T09:50:26;23.10;85.40
1359;DHT22;673;48.098;14.422;2023-07-22T09:52:54;23.30;83.30
1359;DHT22;673;48.098;14.422;2023-07-22T09:55:22;23.30;83.00
1359;DHT22;673;48.098;14.422;2023-07-22T09:57:50;23.70;83.10
1359;DHT22;673;48.098;14.422;2023-07-22T10:00:19;23.50;86.30
1359;DHT22;673;48.098;14.422;2023-07-22T10:02:48;23.40;82.10
1359;DHT22;673;48.098;14.422;2023-07-22T10:05:17;23.60;84.60
1359;DHT22;673;48.098;14.422;2023-07-22T10:07:45;23.80;82.90
1359;DHT22;673;48.098;14.422;2023-07-22T10:10:16;23.40;81.00
1359;DHT22;673;48.098;14.422;2023-07-22T10:12:44;23.40;83.90
1359;DHT22;673;48.098;14.422;2023-07-22T10:15:12;23.90;84.00
1359;DHT22;673;48.098;14.422;2023-07-22T10:17:41;23.90;79.80
1359;DHT22;673;48.098;14.422;2023-07-22T10:20:09;23.90;82.50
1359;DHT22;673;48.098;14.422;2023-07-22T10:22:41;24.20;82.20
1359;DHT22;673;48.098;14.422;2023-07-22T10:25:11;23.90;81.40
1359;DHT22;673;48.098;14.422;2023-07-22T10:27:39;24.20;79.80
1359;DHT22;673;48.098;14.422;2023-07-22T10:30:09;24.50;77.40
1359;DHT22;673;48.098;14.422;2023-07-22T10:32:38;24.60;78.70
1359;DHT22;673;48.098;14.422;2023-07-22T10:35:10;24.70;82.60
1359;DHT22;673;48.098;14.422;2023-07-22T10:37:39;24.70;76.90
1359;DHT22;673;48.098;14.422;2023-07-22T10:40:18;24.80;78.20
1359;DHT22;673;48.098;14.422;2023-07-22T10:42:57;25.10;76.00
1359;DHT22;673;48.098;14.422;2023-07-22T10:45:26;25.00;76.50
1359;DHT22;673;48.098;14.422;2023-07-22T10:48:05;25.00;75.10
1359;DHT22;673;48.098;14.422;2023-07-22T10:50:42;24.70;81.20
1359;DHT22;673;48.098;14.422;2023-07-22T10:53:10;24.30;78.90
1359;DHT22;673;48.098;14.422;2023-07-22T10:56:11;24.40;77.60
1359;DHT22;673;48.098;14.422;2023-07-22T10:58:57;24.80;79.30
1359;DHT22;673;48.098;14.422;2023-07-22T11:01:31;24.90;77.10
1359;DHT22;673;48.098;14.422;2023-07-22T11:04:13;24.90;77.20
1359;DHT22;673;48.098;14.422;2023-07-22T11:06:53;24.50;78.10
1359;DHT22;673;48.098;14.422;2023-07-22T11:09:38;24.20;79.50
1359;DHT22;673;48.098;14.422;2023-07-22T11:12:07;24.70;80.50
1359;DHT22;673;48.098;14.422;2023-07-22T11:14:35;24.90;75.30
1359;DHT22;673;48.098;14.422;2023-07-22T11:17:05;25.00;73.30
1359;DHT22;673;48.098;14.422;2023-07-22T11:19:36;25.10;73.00
1359;DHT22;673;48.098;14.422;2023-07-22T11:22:05;25.00;75.60
1359;DHT22;673;48.098;14.422;2023-07-22T11:24:33;24.90;72.70
1359;DHT22;673;48.098;14.422;2023-07-22T11:27:03;25.00;75.20
1359;DHT22;673;48.098;14.422;2023-07-22T11:29:30;25.10;74.60
1359;DHT22;673;48.098;14.422;2023-07-22T11:31:57;25.40;72.10
1359;DHT22;673;48.098;14.422;2023-07-22T11:34:25;26.00;73.40
1359;DHT22;673;48.098;14.422;2023-07-22T11:36:53;25.70;67.80
1359;DHT22;673;48.098;14.422;2023-07-22T11:39:23;25.30;67.80
1359;DHT22;673;48.098;14.422;2023-07-22T11:41:51;25.50;68.20
1359;DHT22;673;48.098;14.422;2023-07-22T11:44:20;25.80;71.70
1359;DHT22;673;48.098;14.422;2023-07-22T11:46:56;25.50;71.70
1359;DHT22;673;48.098;14.422;2023-07-22T11:49:27;25.70;76.30
1359;DHT22;673;48.098;14.422;2023-07-22T11:51:59;25.70;69.60
1359;DHT22;673;48.098;14.422;2023-07-22T11:54:29;25.40;71.40
1359;DHT22;673;48.098;14.422;2023-07-22T11:56:56;26.10;72.20
1359;DHT22;673;48.098;14.422;2023-07-22T11:59:34;26.20;68.00
1359;DHT22;673;48.098;14.422;2023-07-22T12:02:01;25.90;66.50
1359;DHT22;673;48.098;14.422;2023-07-22T12:04:28;25.90;70.50
1359;DHT22;673;48.098;14.422;2023-07-22T12:06:55;25.60;68.30
1359;DHT22;673;48.098;14.422;2023-07-22T12:09:23;25.60;71.00
1359;DHT22;673;48.098;14.422;2023-07-22T12:11:59;25.20;69.00
1359;DHT22;673;48.098;14.422;2023-07-22T12:14:33;25.00;69.00
1359;DHT22;673;48.098;14.422;2023-07-22T12:17:01;25.20;70.80
1359;DHT22;673;48.098;14.422;2023-07-22T12:19:29;25.30;71.20
1359;DHT22;673;48.098;14.422;2023-07-22T12:21:56;25.80;69.50
1359;DHT22;673;48.098;14.422;2023-07-22T12:24:23;25.70;66.80
1359;DHT22;673;48.098;14.422;2023-07-22T12:26:50;25.80;70.50
1359;DHT22;673;48.098;14.422;2023-07-22T12:29:18;26.00;68.60
1359;DHT22;673;48.098;14.422;2023-07-22T12:31:45;25.60;67.40
1359;DHT22;673;48.098;14.422;2023-07-22T12:34:12;26.00;67.80
1359;DHT22;673;48.098;14.422;2023-07-22T12:36:39;25.30;67.50
1359;DHT22;673;48.098;14.422;2023-07-22T12:39:06;25.20;67.70
1359;DHT22;673;48.098;14.422;2023-07-22T12:41:33;25.40;67.80
1359;DHT22;673;48.098;14.422;2023-07-22T12:44:00;25.90;69.80
1359;DHT22;673;48.098;14.422;2023-07-22T12:46:29;25.90;67.20
1359;DHT22;673;48.098;14.422;2023-07-22T12:48:55;25.90;65.80
1359;DHT22;673;48.098;14.422;2023-07-22T12:51:22;26.20;69.80
1359;DHT22;673;48.098;14.422;2023-07-22T12:53:49;25.90;67.60
1359;DHT22;673;48.098;14.422;2023-07-22T12:56:16;26.00;67.30
1359;DHT22;673;48.098;14.422;2023-07-22T12:58:43;25.70;69.30
1359;DHT22;673;48.098;14.422;2023-07-22T13:01:10;25.70;67.20
1359;DHT22;673;48.098;14.422;2023-07-22T13:03:39;26.10;70.70
1359;DHT22;673;48.098;14.422;2023-07-22T13:06:06;25.60;68.80
1359;DHT22;673;48.098;14.422;2023-07-22T13:08:33;25.50;68.90
1359;DHT22;673;48.098;14.422;2023-07-22T13:11:00;25.90;72.10
1359;DHT22;673;48.098;14.422;2023-07-22T13:13:27;26.40;67.80
1359;DHT22;673;48.098;14.422;2023-07-22T13:15:54;26.30;65.90
1359;DHT22;673;48.098;14.422;2023-07-22T13:18:21;26.20;66.00
1359;DHT22;673;48.098;14.422;2023-07-22T13:20:49;26.20;66.50
1359;DHT22;673;48.098;14.422;2023-07-22T13:23:16;26.20;65.50
1359;DHT22;673;48.098;14.422;2023-07-22T13:25:43;25.60;64.60
1359;DHT22;673;48.098;14.422;2023-07-22T13:28:10;25.20;69.40
1359;DHT22;673;48.098;14.422;2023-07-22T13:30:37;25.10;67.20
1359;DHT22;673;48.098;14.422;2023-07-22T13:33:04;25.20;66.50
1359;DHT22;673;48.098;14.422;2023-07-22T13:35:31;25.40;66.40
1359;DHT22;673;48.098;14.422;2023-07-22T13:37:59;25.30;69.70
1359;DHT22;673;48.098;14.422;2023-07-22T13:40:26;25.30;66.40
1359;DHT22;673;48.098;14.422;2023-07-22T13:42:53;25.40;65.80
1359;DHT22;673;48.098;14.422;2023-07-22T13:45:20;25.50;66.40
1359;DHT22;673;48.098;14.422;2023-07-22T13:47:47;25.30;67.40
1359;DHT22;673;48.098;14.422;2023-07-22T13:50:14;25.40;66.30
1359;DHT22;673;48.098;14.422;2023-07-22T13:52:41;25.40;67.90
1359;DHT22;673;48.098;14.422;2023-07-22T13:55:10;25.10;67.00
1359;DHT22;673;48.098;14.422;2023-07-22T13:57:37;24.80;67.00
1359;DHT22;673;48.098;14.422;2023-07-22T14:00:05;25.00;69.10
1359;DHT22;673;48.098;14.422;2023-07-22T14:02:34;25.10;69.00
1359;DHT22;673;48.098;14.422;2023-07-22T14:05:01;25.00;69.00
1359;DHT22;673;48.098;14.422;2023-07-22T14:07:28;25.10;66.60
1359;DHT22;673;48.098;14.422;2023-07-22T14:09:55;25.30;65.60
1359;DHT22;673;48.098;14.422;2023-07-22T14:12:23;25.50;64.90
1359;DHT22;673;48.098;14.422;2023-07-22T14:14:50;25.60;63.50
1359;DHT22;673;48.098;14.422;2023-07-22T14:17:17;26.00;66.30
1359;DHT22;673;48.098;14.422;2023-07-22T14:19:44;26.00;60.40
1359;DHT22;673;48.098;14.422;2023-07-22T14:22:11;25.70;60.90
1359;DHT22;673;48.098;14.422;2023-07-22T14:24:38;25.70;65.00
1359;DHT22;673;48.098;14.422;2023-07-22T14:27:05;26.10;67.20
1359;DHT22;673;48.098;14.422;2023-07-22T14:29:34;26.30;68.00
1359;DHT22;673;48.098;14.422;2023-07-22T14:32:01;26.80;64.50
1359;DHT22;673;48.098;14.422;2023-07-22T14:34:28;27.40;65.60
1359;DHT22;673;48.098;14.422;2023-07-22T14:36:55;27.30;63.00
1359;DHT22;673;48.098;14.422;2023-07-22T14:39:22;27.20;59.80
1359;DHT22;673;48.098;14.422;2023-07-22T14:41:49;27.20;57.90
1359;DHT22;673;48.098;14.422;2023-07-22T14:44:16;27.20;58.60
1359;DHT22;673;48.098;14.422;2023-07-22T14:46:44;26.80;63.80
1359;DHT22;673;48.098;14.422;2023-07-22T14:49:11;26.50;66.80
1359;DHT22;673;48.098;14.422;2023-07-22T14:51:38;26.60;64.70
1359;DHT22;673;48.098;14.422;2023-07-22T14:54:05;26.60;62.90
1359;DHT22;673;48.098;14.422;2023-07-22T14:56:32;26.50;60.90
1359;DHT22;673;48.098;14.422;2023-07-22T14:58:59;26.30;61.50
1359;DHT22;673;48.098;14.422;2023-07-22T15:01:26;26.10;61.20
1359;DHT22;673;48.098;14.422;2023-07-22T15:03:54;25.70;61.10
1359;DHT22;673;48.098;14.422;2023-07-22T15:06:21;25.70;64.10
1359;DHT22;673;48.098;14.422;2023-07-22T15:08:48;25.90;60.70
1359;DHT22;673;48.098;14.422;2023-07-22T15:11:15;26.00;63.10
1359;DHT22;673;48.098;14.422;2023-07-22T15:13:42;25.60;62.00
1359;DHT22;673;48.098;14.422;2023-07-22T15:16:09;25.40;63.30
1359;DHT22;673;48.098;14.422;2023-07-22T15:18:36;25.30;64.00
1359;DHT22;673;48.098;14.422;2023-07-22T15:21:04;25.50;64.20
1359;DHT22;673;48.098;14.422;2023-07-22T15:23:31;25.40;63.20
1359;DHT22;673;48.098;14.422;2023-07-22T15:25:58;25.40;66.90
1359;DHT22;673;48.098;14.422;2023-07-22T15:28:25;25.70;64.50
1359;DHT22;673;48.098;14.422;2023-07-22T15:30:53;25.70;63.50
1359;DHT22;673;48.098;14.422;2023-07-22T15:33:20;25.70;63.30
1359;DHT22;673;48.098;14.422;2023-07-22T15:35:48;26.20;61.40
1359;DHT22;673;48.098;14.422;2023-07-22T15:38:16;26.60;62.50
1359;DHT22;673;48.098;14.422;2023-07-22T15:40:43;27.00;61.80
1359;DHT22;673;48.098;14.422;2023-07-22T15:43:10;27.40;59.90
1359;DHT22;673;48.098;14.422;2023-07-22T15:45:37;27.70;56.40
1359;DHT22;673;48.098;14.422;2023-07-22T15:48:05;27.80;55.90
1359;DHT22;673;48.098;14.422;2023-07-22T15:50:32;28.10;55.40
1359;DHT22;673;48.098;14.422;2023-07-22T15:52:59;28.00;53.40
1359;DHT22;673;48.098;14.422;2023-07-22T15:55:27;27.80;56.80
1359;DHT22;673;48.098;14.422;2023-07-22T15:57:54;28.60;56.00
1359;DHT22;673;48.098;14.422;2023-07-22T16:00:21;29.30;56.00
1359;DHT22;673;48.098;14.422;2023-07-22T16:02:48;29.30;54.30
1359;DHT22;673;48.098;14.422;2023-07-22T16:05:15;29.00;56.30
1359;DHT22;673;48.098;14.422;2023-07-22T16:07:42;29.00;56.00